createdAt,value
2023-01-21T00:00:35.713Z,-2.18
2023-01-21T00:03:04.021Z,-2.34
2023-01-21T00:05:32.616Z,-2.44
2023-01-21T00:08:02.645Z,-2.33
2023-01-21T00:10:33.517Z,-2.47
2023-01-21T00:13:02.783Z,-2.54
2023-01-21T00:15:32.911Z,-2.59
2023-01-21T00:18:02.808Z,-2.53
2023-01-21T00:20:32.917Z,-2.51
2023-01-21T00:23:02.755Z,-2.53
2023-01-21T00:25:32.626Z,-2.53
2023-01-21T00:28:02.546Z,-2.54
2023-01-21T00:30:33.832Z,-2.51
2023-01-21T00:33:05.661Z,-2.44
2023-01-21T00:35:32.962Z,-2.54
2023-01-21T00:38:02.598Z,-2.49
2023-01-21T00:40:32.384Z,-2.60
2023-01-21T00:43:02.203Z,-2.62
2023-01-21T00:45:31.873Z,-2.57
2023-01-21T00:48:02.063Z,-2.64
2023-01-21T00:50:31.362Z,-2.71
2023-01-21T00:53:01.151Z,-2.75
2023-01-21T00:55:30.880Z,-2.73
2023-01-21T00:58:00.669Z,-2.68
2023-01-21T01:00:30.791Z,-2.68
2023-01-21T01:03:00.571Z,-2.69
2023-01-21T01:05:30.446Z,-2.76
2023-01-21T01:08:00.187Z,-2.68
2023-01-21T01:10:29.986Z,-2.71
2023-01-21T01:13:01.900Z,-2.73
2023-01-21T01:15:31.955Z,-2.74
2023-01-21T01:18:01.641Z,-2.70
2023-01-21T01:20:31.584Z,-2.69
2023-01-21T01:23:01.341Z,-2.63
2023-01-21T01:25:31.162Z,-2.61
2023-01-21T01:28:01.123Z,-2.58
2023-01-21T01:30:31.903Z,-2.62
2023-01-21T01:33:03.167Z,-2.59
2023-01-21T01:35:33.312Z,-2.51
2023-01-21T01:38:07.948Z,-2.56
2023-01-21T01:40:38.000Z,-2.51
2023-01-21T01:43:27.531Z,-2.56
2023-01-21T01:45:57.623Z,-2.46
2023-01-21T01:48:32.787Z,-2.46
2023-01-21T01:51:09.595Z,-2.47
2023-01-21T01:53:47.576Z,-2.47
2023-01-21T01:56:17.870Z,-2.55
2023-01-21T01:58:49.656Z,-2.54
2023-01-21T02:01:20.215Z,-2.48
2023-01-21T02:03:59.597Z,-2.46
2023-01-21T02:06:29.724Z,-2.43
2023-01-21T02:08:59.819Z,-2.44
2023-01-21T02:11:29.853Z,-2.42
2023-01-21T02:14:00.414Z,-2.40
2023-01-21T02:17:07.860Z,-2.32
2023-01-21T02:20:26.866Z,-2.26
2023-01-21T02:24:01.636Z,-2.22
2023-01-21T02:27:01.456Z,-2.25
2023-01-21T02:30:19.724Z,-2.23
2023-01-21T02:33:19.698Z,-2.26
2023-01-21T02:36:23.174Z,-2.19
2023-01-21T02:39:12.520Z,-2.16
2023-01-21T02:42:07.808Z,-2.13
2023-01-21T02:45:16.308Z,-2.03
2023-01-21T02:48:42.951Z,-2.11
2023-01-21T02:51:13.706Z,-2.09
2023-01-21T02:53:43.786Z,-2.08
2023-01-21T02:56:24.177Z,-2.07
2023-01-21T02:59:05.023Z,-2.05
2023-01-21T03:01:34.969Z,-1.94
2023-01-21T03:04:48.280Z,-1.86
2023-01-21T03:07:45.201Z,-1.91
2023-01-21T03:10:43.475Z,-1.98
2023-01-21T03:13:50.748Z,-1.92
2023-01-21T03:16:51.693Z,-1.89
2023-01-21T03:19:42.361Z,-1.92
2023-01-21T03:22:23.712Z,-1.92
2023-01-21T03:24:59.909Z,-1.92
2023-01-21T03:27:37.153Z,-1.92
2023-01-21T03:30:19.551Z,-1.93
2023-01-21T03:32:55.834Z,-1.95
2023-01-21T03:35:36.924Z,-1.84
2023-01-21T03:38:32.396Z,-1.89
2023-01-21T03:41:19.678Z,-1.88
2023-01-21T03:43:51.922Z,-1.85
2023-01-21T03:47:06.724Z,-1.81
2023-01-21T03:49:58.545Z,-1.80
2023-01-21T03:52:29.746Z,-1.79
2023-01-21T03:55:00.480Z,-1.81
2023-01-21T03:57:30.608Z,-1.79
2023-01-21T04:00:00.673Z,-1.81
2023-01-21T04:02:30.713Z,-1.79
2023-01-21T04:05:00.805Z,-1.77
2023-01-21T04:07:30.960Z,-1.71
2023-01-21T04:10:01.100Z,-1.68
2023-01-21T04:12:31.260Z,-1.67
2023-01-21T04:14:59.567Z,-1.68
2023-01-21T04:17:28.421Z,-1.65
2023-01-21T04:19:56.407Z,-1.61
2023-01-21T04:22:24.852Z,-1.60
2023-01-21T04:24:53.199Z,-1.54
2023-01-21T04:27:21.646Z,-1.56
2023-01-21T04:29:50.084Z,-1.50
2023-01-21T04:32:18.487Z,-1.59
2023-01-21T04:34:46.891Z,-1.52
2023-01-21T04:37:15.338Z,-1.57
2023-01-21T04:39:43.742Z,-1.56
2023-01-21T04:42:18.294Z,-1.64
2023-01-21T04:44:48.306Z,-1.66
2023-01-21T04:47:18.364Z,-1.65
2023-01-21T04:49:48.877Z,-1.67
2023-01-21T04:52:18.911Z,-1.64
2023-01-21T04:54:48.926Z,-1.67
2023-01-21T04:57:18.957Z,-1.68
2023-01-21T04:59:48.983Z,-1.59
2023-01-21T05:02:19.124Z,-1.66
2023-01-21T05:04:49.143Z,-1.66
2023-01-21T05:07:21.505Z,-1.69
2023-01-21T05:09:51.881Z,-1.67
2023-01-21T05:12:22.218Z,-1.63
2023-01-21T05:14:57.824Z,-1.64
2023-01-21T05:17:27.844Z,-1.54
2023-01-21T05:19:57.860Z,-1.58
2023-01-21T05:22:27.913Z,-1.62
2023-01-21T05:24:59.621Z,-1.66
2023-01-21T05:27:29.642Z,-1.70
2023-01-21T05:29:59.646Z,-1.70
2023-01-21T05:32:29.707Z,-1.70
2023-01-21T05:34:59.694Z,-1.68
2023-01-21T05:37:29.727Z,-1.68
2023-01-21T05:39:59.713Z,-1.69
2023-01-21T05:42:29.680Z,-1.62
2023-01-21T05:45:01.522Z,-1.65
2023-01-21T05:47:31.559Z,-1.61
2023-01-21T05:50:01.568Z,-1.63
2023-01-21T05:52:31.661Z,-1.60
2023-01-21T05:55:02.973Z,-1.52
2023-01-21T05:57:34.126Z,-1.40
2023-01-21T06:00:06.059Z,-1.41
2023-01-21T06:02:36.140Z,-1.36
2023-01-21T06:05:07.124Z,-1.28
2023-01-21T06:07:37.129Z,-1.30
2023-01-21T06:10:08.490Z,-1.38
2023-01-21T06:12:35.663Z,-1.40
2023-01-21T06:15:04.615Z,-1.36
2023-01-21T06:17:32.362Z,-1.37
2023-01-21T06:20:00.826Z,-1.36
2023-01-21T06:22:29.223Z,-1.35
2023-01-21T06:24:57.803Z,-1.27
2023-01-21T06:27:26.259Z,-1.34
2023-01-21T06:29:54.707Z,-1.37
2023-01-21T06:32:23.164Z,-1.40
2023-01-21T06:34:51.597Z,-1.39
2023-01-21T06:37:20.022Z,-1.41
2023-01-21T06:39:48.446Z,-1.46
2023-01-21T06:42:18.053Z,-1.42
2023-01-21T06:44:46.575Z,-1.27
2023-01-21T06:47:14.940Z,-1.31
2023-01-21T06:49:42.271Z,-1.37
2023-01-21T06:52:10.631Z,-1.41
2023-01-21T06:54:39.090Z,-1.44
2023-01-21T06:57:07.378Z,-1.40
2023-01-21T06:59:35.840Z,-1.38
2023-01-21T07:02:04.402Z,-1.34
2023-01-21T07:04:33.149Z,-1.37
2023-01-21T07:07:01.215Z,-1.34
2023-01-21T07:09:29.569Z,-1.39
2023-01-21T07:11:58.689Z,-1.43
2023-01-21T07:14:26.641Z,-1.40
2023-01-21T07:16:55.180Z,-1.38
2023-01-21T07:19:23.561Z,-1.39
2023-01-21T07:21:51.786Z,-1.40
2023-01-21T07:24:20.955Z,-1.46
2023-01-21T07:26:48.865Z,-1.46
2023-01-21T07:29:17.189Z,-1.42
2023-01-21T07:31:45.575Z,-1.39
2023-01-21T07:34:14.324Z,-1.46
2023-01-21T07:36:42.420Z,-1.49
2023-01-21T07:39:10.985Z,-1.46
2023-01-21T07:41:39.487Z,-1.46
2023-01-21T07:44:09.490Z,-1.34
2023-01-21T07:46:39.525Z,-1.34
2023-01-21T07:49:07.641Z,-1.33
2023-01-21T07:51:36.156Z,-1.31
2023-01-21T07:54:04.852Z,-1.28
2023-01-21T07:56:32.908Z,-1.27
2023-01-21T07:59:01.326Z,-0.99
2023-01-21T08:01:31.738Z,-1.10
2023-01-21T08:04:01.956Z,-1.09
2023-01-21T08:06:32.067Z,-1.07
2023-01-21T08:09:02.180Z,-1.10
2023-01-21T08:11:32.296Z,-1.11
2023-01-21T08:14:02.471Z,-1.10
2023-01-21T08:16:32.692Z,-0.94
2023-01-21T08:19:02.876Z,-0.94
2023-01-21T08:21:32.920Z,-1.01
2023-01-21T08:24:03.234Z,-0.96
2023-01-21T08:26:33.394Z,-1.01
2023-01-21T08:29:03.713Z,-1.03
2023-01-21T08:31:31.990Z,-1.08
2023-01-21T08:34:00.904Z,-1.02
2023-01-21T08:36:29.207Z,-1.05
2023-01-21T08:39:06.481Z,-0.99
2023-01-21T08:41:36.729Z,-0.96
2023-01-21T08:44:08.152Z,-0.91
2023-01-21T08:46:38.232Z,-0.83
2023-01-21T08:53:41.572Z,-0.73
2023-01-21T08:56:11.653Z,-0.67
2023-01-21T08:58:41.857Z,-0.62
2023-01-21T09:01:15.635Z,-0.66
2023-01-21T09:03:45.711Z,-0.61
2023-01-21T09:06:15.917Z,-0.57
2023-01-21T09:08:46.028Z,-0.57
2023-01-21T09:11:16.841Z,-0.55
2023-01-21T09:13:47.371Z,-0.55
2023-01-21T09:16:23.132Z,-0.54
2023-01-21T09:18:53.306Z,-0.57
2023-01-21T09:21:24.576Z,-0.44
2023-01-21T09:23:54.857Z,-0.49
2023-01-21T09:26:25.561Z,-0.46
2023-01-21T09:29:02.069Z,-0.30
2023-01-21T09:31:32.411Z,-0.36
2023-01-21T09:34:05.574Z,-0.29
2023-01-21T09:36:35.873Z,-0.26
2023-01-21T09:39:07.427Z,-0.17
2023-01-21T09:41:47.478Z,-0.19
2023-01-21T09:44:51.219Z,-0.08
2023-01-21T09:47:40.176Z,-0.01
2023-01-21T09:50:20.587Z,0.04
2023-01-21T09:52:55.430Z,0.15
2023-01-21T09:55:43.501Z,0.10
2023-01-21T09:58:53.580Z,0.09
2023-01-21T10:01:43.064Z,0.10
2023-01-21T10:05:12.155Z,0.28
2023-01-21T10:08:02.913Z,0.29
2023-01-21T10:10:51.570Z,0.28
2023-01-21T10:14:08.067Z,0.27
2023-01-21T10:17:27.862Z,0.30
2023-01-21T10:20:31.157Z,0.27
2023-01-21T10:23:17.156Z,0.30
2023-01-21T10:25:50.775Z,0.30
2023-01-21T10:28:30.569Z,0.36
2023-01-21T10:31:28.939Z,0.37
2023-01-21T10:33:57.319Z,0.35
2023-01-21T10:37:03.823Z,0.48
2023-01-21T10:40:08.686Z,0.51
2023-01-21T10:43:19.031Z,0.52
2023-01-21T10:46:30.627Z,0.68
2023-01-21T10:49:50.840Z,0.64
2023-01-21T10:52:50.655Z,0.63
2023-01-21T10:55:53.845Z,0.75
2023-01-21T10:58:57.975Z,0.79
2023-01-21T11:01:37.852Z,0.79
2023-01-21T11:04:21.764Z,0.95
2023-01-21T11:07:17.798Z,1.04
2023-01-21T11:09:49.339Z,1.08
2023-01-21T11:12:22.378Z,1.05
2023-01-21T11:14:59.580Z,1.07
2023-01-21T11:17:37.991Z,1.22
2023-01-21T11:20:41.477Z,1.21
2023-01-21T11:23:35.626Z,1.09
2023-01-21T11:26:25.464Z,1.15
2023-01-21T11:29:20.243Z,1.15
2023-01-21T11:32:16.014Z,1.21
2023-01-21T11:35:04.884Z,1.12
2023-01-21T11:37:36.111Z,1.19
2023-01-21T11:40:26.697Z,1.27
2023-01-21T11:42:57.485Z,1.28
2023-01-21T11:45:36.921Z,1.31
2023-01-21T11:48:22.906Z,1.46
2023-01-21T11:51:07.332Z,1.35
2023-01-21T11:53:38.402Z,1.51
2023-01-21T11:56:08.716Z,1.57
2023-01-21T11:58:42.849Z,1.54
2023-01-21T12:01:22.850Z,1.63
2023-01-21T12:04:00.711Z,1.60
2023-01-21T12:06:32.135Z,1.63
2023-01-21T12:09:07.930Z,1.53
2023-01-21T12:11:38.003Z,1.54
2023-01-21T12:14:53.792Z,1.53
2023-01-21T12:18:37.543Z,1.52
2023-01-21T12:22:12.991Z,1.50
2023-01-21T12:25:23.707Z,1.55
2023-01-21T12:28:23.242Z,1.55
2023-01-21T12:32:01.673Z,1.53
2023-01-21T12:34:57.447Z,1.70
2023-01-21T12:37:55.963Z,1.71
2023-01-21T12:41:09.170Z,1.70
2023-01-21T12:43:58.632Z,1.79
2023-01-21T12:46:44.561Z,1.93
2023-01-21T12:49:32.397Z,1.95
2023-01-21T12:52:37.220Z,2.08
2023-01-21T12:55:39.671Z,2.12
2023-01-21T12:58:22.429Z,2.03
2023-01-21T13:01:00.548Z,2.10
2023-01-21T13:03:59.768Z,2.04
2023-01-21T13:07:05.526Z,1.99
2023-01-21T13:10:23.656Z,1.99
2023-01-21T13:13:24.241Z,1.97
2023-01-21T13:16:06.187Z,1.96
2023-01-21T13:18:50.364Z,2.08
2023-01-21T13:22:04.972Z,1.96
2023-01-21T13:25:21.798Z,2.01
2023-01-21T13:28:08.005Z,2.06
2023-01-21T13:30:57.870Z,2.04
2023-01-21T13:34:13.321Z,2.11
2023-01-21T13:37:17.839Z,2.08
2023-01-21T13:40:42.795Z,2.09
2023-01-21T13:43:44.355Z,2.08
2023-01-21T13:46:57.518Z,2.06
2023-01-21T13:50:35.261Z,2.10
2023-01-21T13:53:41.810Z,2.14
2023-01-21T13:57:02.240Z,2.11
2023-01-21T13:59:52.221Z,2.07
2023-01-21T14:03:07.963Z,1.95
2023-01-21T14:06:10.718Z,1.91
2023-01-21T14:09:33.166Z,1.86
2023-01-21T14:13:16.802Z,1.89
2023-01-21T14:16:16.870Z,1.80
2023-01-21T14:19:14.108Z,1.86
2023-01-21T14:22:52.830Z,1.88
2023-01-21T14:25:41.306Z,1.92
2023-01-21T14:28:22.862Z,1.95
2023-01-21T14:31:43.824Z,1.85
2023-01-21T14:34:38.971Z,1.83
2023-01-21T14:37:44.073Z,1.88
2023-01-21T14:40:30.800Z,1.91
2023-01-21T14:43:01.571Z,1.88
2023-01-21T14:45:51.309Z,1.86
2023-01-21T14:48:33.042Z,1.87
2023-01-21T14:51:05.890Z,1.86
2023-01-21T14:53:52.538Z,1.87
2023-01-21T14:56:33.317Z,1.83
2023-01-21T14:59:46.459Z,1.75
2023-01-21T15:02:47.172Z,1.77
2023-01-21T15:05:36.044Z,1.69
2023-01-21T15:08:28.150Z,1.63
2023-01-21T15:11:08.647Z,1.48
2023-01-21T15:13:42.101Z,1.48
2023-01-21T15:16:17.953Z,1.40
2023-01-21T15:19:31.518Z,1.45
2023-01-21T15:22:20.306Z,1.29
2023-01-21T15:25:14.960Z,1.11
2023-01-21T15:28:25.774Z,0.95
2023-01-21T15:31:05.847Z,0.90
2023-01-21T15:34:16.168Z,0.70
2023-01-21T15:36:57.341Z,0.51
2023-01-21T15:39:34.207Z,0.46
2023-01-21T15:42:48.048Z,0.32
2023-01-21T15:46:01.307Z,0.32
2023-01-21T15:49:27.842Z,0.28
2023-01-21T15:52:28.735Z,0.01
2023-01-21T15:55:01.151Z,-0.13
2023-01-21T15:58:21.872Z,-0.16
2023-01-21T16:01:26.754Z,-0.22
2023-01-21T16:04:37.921Z,-0.23
2023-01-21T16:07:53.201Z,-0.38
2023-01-21T16:11:49.466Z,-0.43
2023-01-21T16:14:37.869Z,-0.46
2023-01-21T16:17:29.956Z,-0.51
2023-01-21T16:20:07.579Z,-0.54
2023-01-21T16:22:44.213Z,-0.50
2023-01-21T16:25:22.972Z,-0.45
2023-01-21T16:27:55.857Z,-0.48
2023-01-21T16:30:32.010Z,-0.43
2023-01-21T16:33:14.900Z,-0.33
2023-01-21T16:35:51.452Z,-0.33
2023-01-21T16:38:29.898Z,-0.33
2023-01-21T16:41:08.442Z,-0.34
2023-01-21T16:43:45.793Z,-0.39
2023-01-21T16:46:39.121Z,-0.34
2023-01-21T16:49:17.747Z,-0.51
2023-01-21T16:52:20.483Z,-0.50
2023-01-21T16:54:56.157Z,-0.47
2023-01-21T16:57:32.251Z,-0.47
2023-01-21T17:00:02.749Z,-0.53
2023-01-21T17:02:34.537Z,-0.53
2023-01-21T17:05:06.102Z,-0.42
2023-01-21T17:07:47.494Z,-0.59
2023-01-21T17:10:15.732Z,-0.63
2023-01-21T17:13:16.212Z,-0.71
2023-01-21T17:16:06.988Z,-0.62
2023-01-21T17:18:55.105Z,-0.59
2023-01-21T17:21:55.495Z,-0.61
2023-01-21T17:24:44.039Z,-0.53
2023-01-21T17:27:21.996Z,-0.60
2023-01-21T17:29:52.688Z,-0.62
2023-01-21T17:32:32.347Z,-0.64
2023-01-21T17:35:15.638Z,-0.55
2023-01-21T17:37:59.916Z,-0.58
2023-01-21T17:41:03.551Z,-0.58
2023-01-21T17:43:36.173Z,-0.64
2023-01-21T17:46:12.661Z,-0.68
2023-01-21T17:48:46.718Z,-0.63
2023-01-21T17:51:29.324Z,-0.65
2023-01-21T17:54:08.971Z,-0.66
2023-01-21T17:56:48.476Z,-0.65
2023-01-21T17:59:39.120Z,-0.66
2023-01-21T18:02:16.279Z,-0.59
2023-01-21T18:04:45.793Z,-0.55
2023-01-21T18:07:32.113Z,-0.65
2023-01-21T18:10:03.436Z,-0.68
2023-01-21T18:12:33.470Z,-0.70
2023-01-21T18:15:03.790Z,-0.65
2023-01-21T18:17:34.238Z,-0.65
2023-01-21T18:20:12.334Z,-0.75
2023-01-21T18:22:42.388Z,-0.64
2023-01-21T18:25:16.273Z,-0.61
2023-01-21T18:27:54.809Z,-0.60
2023-01-21T18:30:28.908Z,-0.56
2023-01-21T18:32:58.727Z,-0.59
2023-01-21T18:35:30.535Z,-0.57
2023-01-21T18:37:59.927Z,-0.57
2023-01-21T18:40:30.067Z,-0.50
2023-01-21T18:42:59.997Z,-0.51
2023-01-21T18:45:29.995Z,-0.52
2023-01-21T18:47:58.709Z,-0.51
2023-01-21T18:50:30.493Z,-0.50
2023-01-21T18:52:58.108Z,-0.62
2023-01-21T18:55:30.001Z,-0.57
2023-01-21T18:57:58.453Z,-0.52
2023-01-21T19:00:33.899Z,-0.59
2023-01-21T19:03:01.767Z,-0.61
2023-01-21T19:05:39.086Z,-0.64
2023-01-21T19:08:29.173Z,-0.66
2023-01-21T19:10:57.849Z,-0.65
2023-01-21T19:13:27.674Z,-0.66
2023-01-21T19:15:58.573Z,-0.56
2023-01-21T19:18:28.618Z,-0.55
2023-01-21T19:20:58.391Z,-0.52
2023-01-21T19:23:28.133Z,-0.56
2023-01-21T19:25:58.725Z,-0.45
2023-01-21T19:28:29.013Z,-0.35
2023-01-21T19:30:58.829Z,-0.38
2023-01-21T19:33:28.870Z,-0.42
2023-01-21T19:36:17.353Z,-0.51
2023-01-21T19:38:56.373Z,-0.50
2023-01-21T19:41:26.435Z,-0.39
2023-01-21T19:43:56.507Z,-0.44
2023-01-21T19:46:28.927Z,-0.48
2023-01-21T19:49:12.202Z,-0.42
2023-01-21T19:51:44.812Z,-0.44
2023-01-21T19:54:14.836Z,-0.42
2023-01-21T19:56:45.380Z,-0.36
2023-01-21T19:59:16.695Z,-0.40
2023-01-21T20:01:47.162Z,-0.44
2023-01-21T20:04:17.467Z,-0.38
2023-01-21T20:06:47.911Z,-0.34
2023-01-21T20:09:19.029Z,-0.34
2023-01-21T20:11:47.808Z,-0.39
2023-01-21T20:14:17.816Z,-0.38
2023-01-21T20:16:54.773Z,-0.36
2023-01-21T20:19:24.665Z,-0.34
2023-01-21T20:22:02.121Z,-0.23
2023-01-21T20:24:33.982Z,-0.26
2023-01-21T20:27:09.325Z,-0.16
2023-01-21T20:29:49.582Z,-0.19
2023-01-21T20:32:26.364Z,-0.22
2023-01-21T20:34:56.384Z,-0.20
2023-01-21T20:37:26.200Z,-0.15
2023-01-21T20:39:56.001Z,-0.16
2023-01-21T20:42:26.277Z,-0.18
2023-01-21T20:44:55.849Z,-0.18
2023-01-21T20:47:37.674Z,-0.16
2023-01-21T20:50:35.415Z,-0.09
2023-01-21T20:53:04.465Z,0.00
2023-01-21T20:55:34.469Z,-0.10
2023-01-21T20:58:06.075Z,-0.06
2023-01-21T21:00:36.153Z,-0.05
2023-01-21T21:03:06.939Z,-0.10
2023-01-21T21:05:37.176Z,-0.04
2023-01-21T21:08:10.813Z,-0.08
2023-01-21T21:10:40.596Z,0.01
2023-01-21T21:13:11.983Z,-0.07
2023-01-21T21:15:45.723Z,0.02
2023-01-21T21:18:16.498Z,0.01
2023-01-21T21:20:46.524Z,0.02
2023-01-21T21:23:16.541Z,0.05
2023-01-21T21:25:48.219Z,-0.04
2023-01-21T21:28:19.173Z,-0.07
2023-01-21T21:30:48.558Z,-0.02
2023-01-21T21:33:22.267Z,0.08
2023-01-21T21:35:52.155Z,0.07
2023-01-21T21:38:22.012Z,0.01
2023-01-21T21:40:53.254Z,-0.01
2023-01-21T21:43:32.408Z,0.06
2023-01-21T21:46:31.493Z,0.09
2023-01-21T21:49:01.564Z,0.03
2023-01-21T21:51:31.929Z,-0.06
2023-01-21T21:54:01.944Z,-0.02
2023-01-21T21:56:31.739Z,-0.09
2023-01-21T21:59:01.724Z,-0.04
2023-01-21T22:01:32.310Z,0.01
2023-01-21T22:04:04.778Z,-0.01
2023-01-21T22:06:34.342Z,-0.02
2023-01-21T22:09:05.155Z,-0.05
2023-01-21T22:11:34.584Z,-0.01
2023-01-21T22:14:04.789Z,-0.08
2023-01-21T22:16:35.129Z,-0.13
2023-01-21T22:19:04.944Z,-0.12
2023-01-21T22:21:35.570Z,-0.07
2023-01-21T22:24:08.155Z,-0.12
2023-01-21T22:26:38.685Z,-0.12
2023-01-21T22:29:08.641Z,-0.10
2023-01-21T22:31:37.151Z,-0.09
2023-01-21T22:34:05.459Z,-0.07
2023-01-21T22:36:34.011Z,-0.08
2023-01-21T22:39:02.857Z,-0.13
2023-01-21T22:41:31.516Z,0.00
2023-01-21T22:43:59.354Z,-0.03
2023-01-21T22:46:30.241Z,-0.01
2023-01-21T22:49:00.148Z,-0.07
2023-01-21T22:51:28.181Z,-0.14
2023-01-21T22:53:57.131Z,-0.09
2023-01-21T22:56:44.825Z,-0.09
2023-01-21T22:59:15.954Z,-0.06
2023-01-21T23:01:44.482Z,-0.08
2023-01-21T23:04:14.955Z,-0.10
2023-01-21T23:06:44.736Z,-0.13
2023-01-21T23:09:16.145Z,-0.02
2023-01-21T23:11:46.162Z,-0.08
2023-01-21T23:14:16.617Z,-0.12
2023-01-21T23:16:47.069Z,-0.15
2023-01-21T23:19:17.064Z,-0.19
2023-01-21T23:21:46.736Z,-0.04
2023-01-21T23:24:16.620Z,0.05
2023-01-21T23:26:46.338Z,-0.12
2023-01-21T23:29:16.016Z,-0.13
2023-01-21T23:31:46.191Z,-0.15
2023-01-21T23:34:16.293Z,-0.09
2023-01-21T23:36:46.080Z,-0.09
2023-01-21T23:39:15.999Z,-0.12
2023-01-21T23:41:45.785Z,-0.10
2023-01-21T23:44:15.636Z,-0.11
2023-01-21T23:46:45.409Z,-0.12
2023-01-21T23:49:17.949Z,-0.13
2023-01-21T23:51:48.683Z,-0.08
2023-01-21T23:54:18.857Z,-0.16
2023-01-21T23:56:48.597Z,-0.18
2023-01-21T23:59:18.595Z,-0.03
